sensor_id;sensor_type;location;lat;lon;timestamp;temperature;humidity
23124;DHT22;11731;48.592;8.858;2022-08-20T00:01:50;20.90;99.90
23124;DHT22;11731;48.592;8.858;2022-08-20T00:04:17;20.80;99.90
23124;DHT22;11731;48.592;8.858;2022-08-20T00:06:44;20.80;99.90
23124;DHT22;11731;48.592;8.858;2022-08-20T00:09:14;20.60;99.90
23124;DHT22;11731;48.592;8.858;2022-08-20T00:11:41;20.70;99.90
23124;DHT22;11731;48.592;8.858;2022-08-20T00:14:08;20.70;99.90
23124;DHT22;11731;48.592;8.858;2022-08-20T00:16:36;20.90;99.90
23124;DHT22;11731;48.592;8.858;2022-08-20T00:19:04;20.90;99.90
23124;DHT22;11731;48.592;8.858;2022-08-20T00:21:32;20.90;99.90
23124;DHT22;11731;48.592;8.858;2022-08-20T00:24:00;21.10;99.90
23124;DHT22;11731;48.592;8.858;2022-08-20T00:26:28;21.10;99.90
23124;DHT22;11731;48.592;8.858;2022-08-20T00:28:55;21.10;99.90
23124;DHT22;11731;48.592;8.858;2022-08-20T00:31:23;21.30;99.90
23124;DHT22;11731;48.592;8.858;2022-08-20T00:33:50;21.20;99.90
23124;DHT22;11731;48.592;8.858;2022-08-20T00:36:18;21.10;99.90
23124;DHT22;11731;48.592;8.858;2022-08-20T00:38:45;21.00;99.90
23124;DHT22;11731;48.592;8.858;2022-08-20T00:41:16;21.00;99.90
23124;DHT22;11731;48.592;8.858;2022-08-20T00:43:46;21.20;99.90
23124;DHT22;11731;48.592;8.858;2022-08-20T00:46:18;21.10;99.90
23124;DHT22;11731;48.592;8.858;2022-08-20T00:48:48;21.00;99.90
23124;DHT22;11731;48.592;8.858;2022-08-20T00:51:24;21.00;99.90
23124;DHT22;11731;48.592;8.858;2022-08-20T00:53:54;21.20;99.90
23124;DHT22;11731;48.592;8.858;2022-08-20T00:56:22;21.40;99.90
23124;DHT22;11731;48.592;8.858;2022-08-20T00:58:51;21.40;99.90
23124;DHT22;11731;48.592;8.858;2022-08-20T01:01:20;21.30;99.90
23124;DHT22;11731;48.592;8.858;2022-08-20T01:03:48;21.30;99.90
23124;DHT22;11731;48.592;8.858;2022-08-20T01:06:15;21.30;99.90
23124;DHT22;11731;48.592;8.858;2022-08-20T01:08:42;21.30;99.90
23124;DHT22;11731;48.592;8.858;2022-08-20T01:11:09;21.20;99.90
23124;DHT22;11731;48.592;8.858;2022-08-20T01:13:42;21.30;99.90
23124;DHT22;11731;48.592;8.858;2022-08-20T01:16:17;21.20;99.90
23124;DHT22;11731;48.592;8.858;2022-08-20T01:18:47;21.20;99.90
23124;DHT22;11731;48.592;8.858;2022-08-20T01:21:16;21.20;99.90
23124;DHT22;11731;48.592;8.858;2022-08-20T01:23:51;21.20;99.90
23124;DHT22;11731;48.592;8.858;2022-08-20T01:26:22;21.00;99.90
23124;DHT22;11731;48.592;8.858;2022-08-20T01:28:53;21.10;99.90
23124;DHT22;11731;48.592;8.858;2022-08-20T01:31:24;21.00;99.90
23124;DHT22;11731;48.592;8.858;2022-08-20T01:33:53;21.00;99.90
23124;DHT22;11731;48.592;8.858;2022-08-20T01:36:23;21.20;99.90
23124;DHT22;11731;48.592;8.858;2022-08-20T01:38:50;21.10;99.90
23124;DHT22;11731;48.592;8.858;2022-08-20T01:41:34;21.10;99.90
23124;DHT22;11731;48.592;8.858;2022-08-20T01:44:05;21.00;99.90
23124;DHT22;11731;48.592;8.858;2022-08-20T01:46:35;21.10;99.90
23124;DHT22;11731;48.592;8.858;2022-08-20T01:49:07;21.20;99.90
23124;DHT22;11731;48.592;8.858;2022-08-20T01:51:35;21.40;99.90
23124;DHT22;11731;48.592;8.858;2022-08-20T01:54:04;21.30;99.90
23124;DHT22;11731;48.592;8.858;2022-08-20T01:56:33;21.20;99.90
23124;DHT22;11731;48.592;8.858;2022-08-20T01:59:03;21.20;99.90
23124;DHT22;11731;48.592;8.858;2022-08-20T02:01:34;21.30;99.90
23124;DHT22;11731;48.592;8.858;2022-08-20T02:04:03;21.40;99.90
23124;DHT22;11731;48.592;8.858;2022-08-20T02:06:35;21.20;99.90
23124;DHT22;11731;48.592;8.858;2022-08-20T02:09:04;21.30;99.90
23124;DHT22;11731;48.592;8.858;2022-08-20T02:11:33;21.50;99.90
23124;DHT22;11731;48.592;8.858;2022-08-20T02:14:02;21.30;99.90
23124;DHT22;11731;48.592;8.858;2022-08-20T02:16:33;21.30;99.90
23124;DHT22;11731;48.592;8.858;2022-08-20T02:19:06;21.30;99.90
23124;DHT22;11731;48.592;8.858;2022-08-20T02:21:35;21.20;99.90
23124;DHT22;11731;48.592;8.858;2022-08-20T02:24:04;21.10;99.90
23124;DHT22;11731;48.592;8.858;2022-08-20T02:26:31;21.00;99.90
23124;DHT22;11731;48.592;8.858;2022-08-20T02:28:59;21.10;99.90
23124;DHT22;11731;48.592;8.858;2022-08-20T02:31:26;21.30;99.90
23124;DHT22;11731;48.592;8.858;2022-08-20T02:33:53;21.20;99.90
23124;DHT22;11731;48.592;8.858;2022-08-20T02:36:19;21.10;99.90
23124;DHT22;11731;48.592;8.858;2022-08-20T02:38:47;21.10;99.90
23124;DHT22;11731;48.592;8.858;2022-08-20T02:41:14;21.20;99.90
23124;DHT22;11731;48.592;8.858;2022-08-20T02:43:41;21.40;99.90
23124;DHT22;11731;48.592;8.858;2022-08-20T02:46:10;21.00;99.90
23124;DHT22;11731;48.592;8.858;2022-08-20T02:48:37;21.20;99.90
23124;DHT22;11731;48.592;8.858;2022-08-20T02:51:05;21.10;99.90
23124;DHT22;11731;48.592;8.858;2022-08-20T02:53:35;21.10;99.90
23124;DHT22;11731;48.592;8.858;2022-08-20T02:56:03;21.10;99.90
23124;DHT22;11731;48.592;8.858;2022-08-20T02:58:30;21.30;99.90
23124;DHT22;11731;48.592;8.858;2022-08-20T03:00:58;21.20;99.90
23124;DHT22;11731;48.592;8.858;2022-08-20T03:03:27;21.10;99.90
23124;DHT22;11731;48.592;8.858;2022-08-20T03:05:55;21.00;99.90
23124;DHT22;11731;48.592;8.858;2022-08-20T03:08:24;20.90;99.90
23124;DHT22;11731;48.592;8.858;2022-08-20T03:10:51;21.10;99.90
23124;DHT22;11731;48.592;8.858;2022-08-20T03:13:19;21.30;99.90
23124;DHT22;11731;48.592;8.858;2022-08-20T03:15:49;21.30;99.90
23124;DHT22;11731;48.592;8.858;2022-08-20T03:18:17;21.30;99.90
23124;DHT22;11731;48.592;8.858;2022-08-20T03:20:47;21.60;99.90
23124;DHT22;11731;48.592;8.858;2022-08-20T03:23:15;21.50;99.90
23124;DHT22;11731;48.592;8.858;2022-08-20T03:25:42;21.80;99.90
23124;DHT22;11731;48.592;8.858;2022-08-20T03:28:10;21.70;99.90
23124;DHT22;11731;48.592;8.858;2022-08-20T03:30:37;21.80;99.90
23124;DHT22;11731;48.592;8.858;2022-08-20T03:33:04;22.00;99.90
23124;DHT22;11731;48.592;8.858;2022-08-20T03:35:32;21.90;99.90
23124;DHT22;11731;48.592;8.858;2022-08-20T03:38:04;22.30;99.90
23124;DHT22;11731;48.592;8.858;2022-08-20T03:40:33;22.10;99.90
23124;DHT22;11731;48.592;8.858;2022-08-20T03:43:00;22.10;99.90
23124;DHT22;11731;48.592;8.858;2022-08-20T03:45:27;22.00;99.90
23124;DHT22;11731;48.592;8.858;2022-08-20T03:47:55;21.90;99.90
23124;DHT22;11731;48.592;8.858;2022-08-20T03:50:25;21.80;99.90
23124;DHT22;11731;48.592;8.858;2022-08-20T03:52:53;21.70;99.90
23124;DHT22;11731;48.592;8.858;2022-08-20T03:55:23;21.90;99.90
23124;DHT22;11731;48.592;8.858;2022-08-20T03:57:52;21.80;99.90
23124;DHT22;11731;48.592;8.858;2022-08-20T04:00:23;21.90;99.90
23124;DHT22;11731;48.592;8.858;2022-08-20T04:02:50;21.70;99.90
23124;DHT22;11731;48.592;8.858;2022-08-20T04:05:17;21.80;99.90
23124;DHT22;11731;48.592;8.858;2022-08-20T04:07:44;21.80;99.90
23124;DHT22;11731;48.592;8.858;2022-08-20T04:10:12;21.80;99.90
23124;DHT22;11731;48.592;8.858;2022-08-20T04:12:40;21.60;99.90
23124;DHT22;11731;48.592;8.858;2022-08-20T04:15:09;21.70;99.90
23124;DHT22;11731;48.592;8.858;2022-08-20T04:17:38;21.90;99.90
23124;DHT22;11731;48.592;8.858;2022-08-20T04:20:09;22.00;99.90
23124;DHT22;11731;48.592;8.858;2022-08-20T04:22:37;21.90;99.90
23124;DHT22;11731;48.592;8.858;2022-08-20T04:25:06;22.10;99.90
23124;DHT22;11731;48.592;8.858;2022-08-20T04:27:35;22.10;99.90
23124;DHT22;11731;48.592;8.858;2022-08-20T04:30:05;22.30;99.90
23124;DHT22;11731;48.592;8.858;2022-08-20T04:32:32;22.40;99.90
23124;DHT22;11731;48.592;8.858;2022-08-20T04:35:01;22.50;99.90
23124;DHT22;11731;48.592;8.858;2022-08-20T04:37:28;22.60;99.90
23124;DHT22;11731;48.592;8.858;2022-08-20T04:39:55;22.60;99.90
23124;DHT22;11731;48.592;8.858;2022-08-20T04:42:45;22.60;99.90
23124;DHT22;11731;48.592;8.858;2022-08-20T04:45:13;22.50;99.90
23124;DHT22;11731;48.592;8.858;2022-08-20T04:47:40;22.30;99.90
23124;DHT22;11731;48.592;8.858;2022-08-20T04:50:09;22.40;99.90
23124;DHT22;11731;48.592;8.858;2022-08-20T04:52:36;22.50;99.90
23124;DHT22;11731;48.592;8.858;2022-08-20T04:55:04;22.30;99.90
23124;DHT22;11731;48.592;8.858;2022-08-20T04:57:32;22.30;99.90
23124;DHT22;11731;48.592;8.858;2022-08-20T05:00:01;22.40;99.90
23124;DHT22;11731;48.592;8.858;2022-08-20T05:02:29;22.30;99.90
23124;DHT22;11731;48.592;8.858;2022-08-20T05:04:56;22.20;99.90
23124;DHT22;11731;48.592;8.858;2022-08-20T05:07:23;22.00;99.90
23124;DHT22;11731;48.592;8.858;2022-08-20T05:09:50;21.70;99.90
23124;DHT22;11731;48.592;8.858;2022-08-20T05:12:17;21.40;99.90
23124;DHT22;11731;48.592;8.858;2022-08-20T05:14:44;21.10;99.90
23124;DHT22;11731;48.592;8.858;2022-08-20T05:17:11;20.90;99.90
23124;DHT22;11731;48.592;8.858;2022-08-20T05:19:40;21.10;99.90
23124;DHT22;11731;48.592;8.858;2022-08-20T05:22:07;21.40;99.90
23124;DHT22;11731;48.592;8.858;2022-08-20T05:24:34;21.60;99.90
23124;DHT22;11731;48.592;8.858;2022-08-20T05:27:01;21.80;99.90
23124;DHT22;11731;48.592;8.858;2022-08-20T05:29:28;21.90;99.90
23124;DHT22;11731;48.592;8.858;2022-08-20T05:31:55;22.20;99.90
23124;DHT22;11731;48.592;8.858;2022-08-20T05:34:22;21.90;99.90
23124;DHT22;11731;48.592;8.858;2022-08-20T05:36:51;22.00;99.90
23124;DHT22;11731;48.592;8.858;2022-08-20T05:39:20;22.10;99.90
23124;DHT22;11731;48.592;8.858;2022-08-20T05:41:47;22.20;99.90
23124;DHT22;11731;48.592;8.858;2022-08-20T05:44:16;21.90;99.90
23124;DHT22;11731;48.592;8.858;2022-08-20T05:46:45;22.10;99.90
23124;DHT22;11731;48.592;8.858;2022-08-20T05:49:15;22.00;99.90
23124;DHT22;11731;48.592;8.858;2022-08-20T05:51:42;22.20;99.90
23124;DHT22;11731;48.592;8.858;2022-08-20T05:54:11;22.40;99.90
23124;DHT22;11731;48.592;8.858;2022-08-20T05:56:38;22.50;99.90
23124;DHT22;11731;48.592;8.858;2022-08-20T05:59:07;22.70;99.90
23124;DHT22;11731;48.592;8.858;2022-08-20T06:01:36;22.90;99.90
23124;DHT22;11731;48.592;8.858;2022-08-20T06:04:03;22.90;99.90
23124;DHT22;11731;48.592;8.858;2022-08-20T06:06:48;23.10;99.90
23124;DHT22;11731;48.592;8.858;2022-08-20T06:09:18;23.20;99.90
23124;DHT22;11731;48.592;8.858;2022-08-20T06:11:45;23.00;99.90
23124;DHT22;11731;48.592;8.858;2022-08-20T06:14:12;23.00;99.90
23124;DHT22;11731;48.592;8.858;2022-08-20T06:16:41;22.90;99.90
23124;DHT22;11731;48.592;8.858;2022-08-20T06:19:09;22.90;99.90
23124;DHT22;11731;48.592;8.858;2022-08-20T06:21:36;22.90;99.90
23124;DHT22;11731;48.592;8.858;2022-08-20T06:24:03;23.10;99.90
23124;DHT22;11731;48.592;8.858;2022-08-20T06:26:32;22.90;99.90
23124;DHT22;11731;48.592;8.858;2022-08-20T06:29:00;22.80;99.90
23124;DHT22;11731;48.592;8.858;2022-08-20T06:31:27;23.10;99.90
23124;DHT22;11731;48.592;8.858;2022-08-20T06:33:54;23.00;99.90
23124;DHT22;11731;48.592;8.858;2022-08-20T06:36:21;22.80;99.90
23124;DHT22;11731;48.592;8.858;2022-08-20T06:38:49;22.80;99.90
23124;DHT22;11731;48.592;8.858;2022-08-20T06:41:16;23.00;99.90
23124;DHT22;11731;48.592;8.858;2022-08-20T06:43:44;23.30;99.90
23124;DHT22;11731;48.592;8.858;2022-08-20T06:46:11;23.20;99.90
23124;DHT22;11731;48.592;8.858;2022-08-20T06:48:39;23.00;99.90
23124;DHT22;11731;48.592;8.858;2022-08-20T06:51:05;22.90;99.90
23124;DHT22;11731;48.592;8.858;2022-08-20T06:53:34;23.00;99.90
23124;DHT22;11731;48.592;8.858;2022-08-20T06:56:01;22.70;99.90
23124;DHT22;11731;48.592;8.858;2022-08-20T06:58:28;22.80;99.90
23124;DHT22;11731;48.592;8.858;2022-08-20T07:00:58;22.80;99.90
23124;DHT22;11731;48.592;8.858;2022-08-20T07:03:25;22.80;99.90
23124;DHT22;11731;48.592;8.858;2022-08-20T07:05:52;22.70;99.90
23124;DHT22;11731;48.592;8.858;2022-08-20T07:08:19;22.80;99.90
23124;DHT22;11731;48.592;8.858;2022-08-20T07:10:47;22.80;99.90
23124;DHT22;11731;48.592;8.858;2022-08-20T07:13:14;22.70;99.90
23124;DHT22;11731;48.592;8.858;2022-08-20T07:15:42;22.90;99.90
23124;DHT22;11731;48.592;8.858;2022-08-20T07:18:11;23.10;99.90
23124;DHT22;11731;48.592;8.858;2022-08-20T07:20:39;23.20;99.90
23124;DHT22;11731;48.592;8.858;2022-08-20T07:23:06;23.30;99.90
23124;DHT22;11731;48.592;8.858;2022-08-20T07:25:35;23.20;99.90
23124;DHT22;11731;48.592;8.858;2022-08-20T07:28:04;23.40;99.90
23124;DHT22;11731;48.592;8.858;2022-08-20T07:30:32;23.30;99.90
23124;DHT22;11731;48.592;8.858;2022-08-20T07:33:18;23.40;99.90
23124;DHT22;11731;48.592;8.858;2022-08-20T07:35:45;23.60;99.90
23124;DHT22;11731;48.592;8.858;2022-08-20T07:38:15;24.00;99.90
23124;DHT22;11731;48.592;8.858;2022-08-20T07:40:48;24.40;99.90
23124;DHT22;11731;48.592;8.858;2022-08-20T07:43:16;24.70;99.90
23124;DHT22;11731;48.592;8.858;2022-08-20T07:45:43;24.70;99.90
23124;DHT22;11731;48.592;8.858;2022-08-20T07:48:12;24.30;99.90
23124;DHT22;11731;48.592;8.858;2022-08-20T07:50:40;24.30;99.90
23124;DHT22;11731;48.592;8.858;2022-08-20T07:53:08;24.30;99.90
23124;DHT22;11731;48.592;8.858;2022-08-20T07:55:36;24.10;99.90
23124;DHT22;11731;48.592;8.858;2022-08-20T07:58:08;24.20;99.90
23124;DHT22;11731;48.592;8.858;2022-08-20T08:00:35;24.50;99.90
23124;DHT22;11731;48.592;8.858;2022-08-20T08:03:03;24.60;99.90
23124;DHT22;11731;48.592;8.858;2022-08-20T08:05:30;24.50;99.90
23124;DHT22;11731;48.592;8.858;2022-08-20T08:07:59;24.80;99.80
23124;DHT22;11731;48.592;8.858;2022-08-20T08:10:27;25.00;99.80
23124;DHT22;11731;48.592;8.858;2022-08-20T08:12:57;25.20;99.00
23124;DHT22;11731;48.592;8.858;2022-08-20T08:15:28;25.10;99.00
23124;DHT22;11731;48.592;8.858;2022-08-20T08:18:00;25.30;99.30
23124;DHT22;11731;48.592;8.858;2022-08-20T08:20:28;25.40;99.40
23124;DHT22;11731;48.592;8.858;2022-08-20T08:22:56;25.50;99.20
23124;DHT22;11731;48.592;8.858;2022-08-20T08:25:24;25.30;99.30
23124;DHT22;11731;48.592;8.858;2022-08-20T08:27:51;25.10;99.60
23124;DHT22;11731;48.592;8.858;2022-08-20T08:30:18;25.10;99.90
23124;DHT22;11731;48.592;8.858;2022-08-20T08:32:45;25.00;99.40
23124;DHT22;11731;48.592;8.858;2022-08-20T08:35:30;25.10;98.60
23124;DHT22;11731;48.592;8.858;2022-08-20T08:37:57;25.10;98.50
23124;DHT22;11731;48.592;8.858;2022-08-20T08:40:27;25.00;98.40
23124;DHT22;11731;48.592;8.858;2022-08-20T08:42:55;24.80;99.40
23124;DHT22;11731;48.592;8.858;2022-08-20T08:45:26;24.80;99.60
23124;DHT22;11731;48.592;8.858;2022-08-20T08:47:55;24.90;99.80
23124;DHT22;11731;48.592;8.858;2022-08-20T08:50:31;25.00;99.90
23124;DHT22;11731;48.592;8.858;2022-08-20T08:53:00;25.20;99.80
23124;DHT22;11731;48.592;8.858;2022-08-20T08:55:31;25.50;99.50
23124;DHT22;11731;48.592;8.858;2022-08-20T08:58:01;25.30;97.20
23124;DHT22;11731;48.592;8.858;2022-08-20T09:00:28;24.40;98.00
23124;DHT22;11731;48.592;8.858;2022-08-20T09:03:00;24.30;98.70
23124;DHT22;11731;48.592;8.858;2022-08-20T09:05:32;24.70;97.80
23124;DHT22;11731;48.592;8.858;2022-08-20T09:08:02;24.80;97.40
23124;DHT22;11731;48.592;8.858;2022-08-20T09:10:32;24.70;97.00
23124;DHT22;11731;48.592;8.858;2022-08-20T09:12:59;24.90;97.00
23124;DHT22;11731;48.592;8.858;2022-08-20T09:15:26;24.80;97.20
23124;DHT22;11731;48.592;8.858;2022-08-20T09:17:53;24.90;97.30
23124;DHT22;11731;48.592;8.858;2022-08-20T09:20:20;25.00;97.10
23124;DHT22;11731;48.592;8.858;2022-08-20T09:22:47;25.30;96.90
23124;DHT22;11731;48.592;8.858;2022-08-20T09:25:14;25.60;96.50
23124;DHT22;11731;48.592;8.858;2022-08-20T09:27:42;25.40;96.20
23124;DHT22;11731;48.592;8.858;2022-08-20T09:30:10;24.80;97.10
23124;DHT22;11731;48.592;8.858;2022-08-20T09:32:37;24.30;97.90
23124;DHT22;11731;48.592;8.858;2022-08-20T09:35:04;24.40;97.80
23124;DHT22;11731;48.592;8.858;2022-08-20T09:37:32;24.70;97.60
23124;DHT22;11731;48.592;8.858;2022-08-20T09:39:59;24.50;97.70
23124;DHT22;11731;48.592;8.858;2022-08-20T09:42:28;24.40;97.30
23124;DHT22;11731;48.592;8.858;2022-08-20T09:44:57;24.30;97.70
23124;DHT22;11731;48.592;8.858;2022-08-20T09:47:25;24.30;97.70
23124;DHT22;11731;48.592;8.858;2022-08-20T09:49:52;24.50;97.30
23124;DHT22;11731;48.592;8.858;2022-08-20T09:52:21;24.70;97.80
23124;DHT22;11731;48.592;8.858;2022-08-20T09:54:49;24.70;97.40
23124;DHT22;11731;48.592;8.858;2022-08-20T09:57:17;24.80;97.30
23124;DHT22;11731;48.592;8.858;2022-08-20T09:59:48;25.00;97.70
23124;DHT22;11731;48.592;8.858;2022-08-20T10:02:18;25.00;96.60
23124;DHT22;11731;48.592;8.858;2022-08-20T10:04:45;24.90;97.40
23124;DHT22;11731;48.592;8.858;2022-08-20T10:07:12;24.80;97.20
23124;DHT22;11731;48.592;8.858;2022-08-20T10:09:39;24.30;97.50
23124;DHT22;11731;48.592;8.858;2022-08-20T10:12:06;23.70;98.60
23124;DHT22;11731;48.592;8.858;2022-08-20T10:14:33;23.60;98.90
23124;DHT22;11731;48.592;8.858;2022-08-20T10:17:01;23.60;99.00
23124;DHT22;11731;48.592;8.858;2022-08-20T10:19:30;23.10;99.50
23124;DHT22;11731;48.592;8.858;2022-08-20T10:21:58;22.80;99.90
23124;DHT22;11731;48.592;8.858;2022-08-20T10:24:25;22.90;99.90
23124;DHT22;11731;48.592;8.858;2022-08-20T10:26:54;22.80;99.90
23124;DHT22;11731;48.592;8.858;2022-08-20T10:29:22;22.70;99.90
23124;DHT22;11731;48.592;8.858;2022-08-20T10:31:48;22.70;99.90
23124;DHT22;11731;48.592;8.858;2022-08-20T10:34:15;22.90;99.90
23124;DHT22;11731;48.592;8.858;2022-08-20T10:36:44;23.00;99.90
23124;DHT22;11731;48.592;8.858;2022-08-20T10:39:11;23.00;99.90
23124;DHT22;11731;48.592;8.858;2022-08-20T10:41:38;22.40;99.90
23124;DHT22;11731;48.592;8.858;2022-08-20T10:44:06;21.70;99.90
23124;DHT22;11731;48.592;8.858;2022-08-20T10:46:33;21.70;99.90
23124;DHT22;11731;48.592;8.858;2022-08-20T10:49:00;21.50;99.90
23124;DHT22;11731;48.592;8.858;2022-08-20T10:51:27;21.80;99.90
23124;DHT22;11731;48.592;8.858;2022-08-20T10:53:55;22.20;99.90
23124;DHT22;11731;48.592;8.858;2022-08-20T10:56:23;22.40;99.90
23124;DHT22;11731;48.592;8.858;2022-08-20T10:58:50;22.60;99.90
23124;DHT22;11731;48.592;8.858;2022-08-20T11:01:17;22.80;99.90
23124;DHT22;11731;48.592;8.858;2022-08-20T11:03:44;22.40;99.90
23124;DHT22;11731;48.592;8.858;2022-08-20T11:06:11;22.20;99.90
23124;DHT22;11731;48.592;8.858;2022-08-20T11:08:38;22.00;99.90
23124;DHT22;11731;48.592;8.858;2022-08-20T11:11:06;22.30;99.90
23124;DHT22;11731;48.592;8.858;2022-08-20T11:13:33;22.50;99.90
23124;DHT22;11731;48.592;8.858;2022-08-20T11:16:01;22.60;99.90
23124;DHT22;11731;48.592;8.858;2022-08-20T11:18:28;22.40;99.90
23124;DHT22;11731;48.592;8.858;2022-08-20T11:20:55;22.00;99.90
23124;DHT22;11731;48.592;8.858;2022-08-20T11:23:23;22.10;99.90
23124;DHT22;11731;48.592;8.858;2022-08-20T11:25:50;21.80;99.90
23124;DHT22;11731;48.592;8.858;2022-08-20T11:28:18;21.80;99.90
23124;DHT22;11731;48.592;8.858;2022-08-20T11:30:45;21.70;99.90
23124;DHT22;11731;48.592;8.858;2022-08-20T11:33:14;22.00;99.90
23124;DHT22;11731;48.592;8.858;2022-08-20T11:35:41;22.40;99.90
23124;DHT22;11731;48.592;8.858;2022-08-20T11:38:08;22.60;99.90
23124;DHT22;11731;48.592;8.858;2022-08-20T11:40:35;22.60;99.90
23124;DHT22;11731;48.592;8.858;2022-08-20T11:43:02;22.50;99.90
23124;DHT22;11731;48.592;8.858;2022-08-20T11:45:30;22.40;99.90
23124;DHT22;11731;48.592;8.858;2022-08-20T11:47:57;22.30;99.90
23124;DHT22;11731;48.592;8.858;2022-08-20T11:50:24;22.10;99.90
23124;DHT22;11731;48.592;8.858;2022-08-20T11:52:50;21.80;99.90
23124;DHT22;11731;48.592;8.858;2022-08-20T11:55:17;21.60;99.90
23124;DHT22;11731;48.592;8.858;2022-08-20T11:57:47;21.30;99.90
23124;DHT22;11731;48.592;8.858;2022-08-20T12:00:17;21.50;99.90
23124;DHT22;11731;48.592;8.858;2022-08-20T12:02:45;22.10;99.90
23124;DHT22;11731;48.592;8.858;2022-08-20T12:05:13;22.20;99.90
23124;DHT22;11731;48.592;8.858;2022-08-20T12:07:40;22.50;99.90
23124;DHT22;11731;48.592;8.858;2022-08-20T12:10:08;22.80;99.90
23124;DHT22;11731;48.592;8.858;2022-08-20T12:12:36;23.10;99.90
23124;DHT22;11731;48.592;8.858;2022-08-20T12:15:04;23.10;99.90
23124;DHT22;11731;48.592;8.858;2022-08-20T12:17:32;23.00;99.90
23124;DHT22;11731;48.592;8.858;2022-08-20T12:20:03;23.40;99.90
23124;DHT22;11731;48.592;8.858;2022-08-20T12:22:31;23.70;99.90
23124;DHT22;11731;48.592;8.858;2022-08-20T12:24:58;23.70;99.90
23124;DHT22;11731;48.592;8.858;2022-08-20T12:27:27;23.40;99.90
23124;DHT22;11731;48.592;8.858;2022-08-20T12:29:57;23.10;99.90
23124;DHT22;11731;48.592;8.858;2022-08-20T12:32:25;22.80;99.90
23124;DHT22;11731;48.592;8.858;2022-08-20T12:34:52;22.80;99.80
23124;DHT22;11731;48.592;8.858;2022-08-20T12:37:23;22.90;99.50
23124;DHT22;11731;48.592;8.858;2022-08-20T12:39:52;22.90;99.40
23124;DHT22;11731;48.592;8.858;2022-08-20T12:42:19;23.10;98.90
23124;DHT22;11731;48.592;8.858;2022-08-20T12:44:46;23.00;99.80
23124;DHT22;11731;48.592;8.858;2022-08-20T12:47:15;23.30;98.60
23124;DHT22;11731;48.592;8.858;2022-08-20T12:49:44;23.50;99.20
23124;DHT22;11731;48.592;8.858;2022-08-20T12:52:12;23.90;99.00
23124;DHT22;11731;48.592;8.858;2022-08-20T12:54:41;24.00;98.00
23124;DHT22;11731;48.592;8.858;2022-08-20T12:57:13;24.30;97.20
23124;DHT22;11731;48.592;8.858;2022-08-20T12:59:40;24.50;97.00
23124;DHT22;11731;48.592;8.858;2022-08-20T13:02:07;24.90;96.70
23124;DHT22;11731;48.592;8.858;2022-08-20T13:04:34;25.20;96.70
23124;DHT22;11731;48.592;8.858;2022-08-20T13:07:02;24.80;96.70
23124;DHT22;11731;48.592;8.858;2022-08-20T13:09:29;25.10;96.40
23124;DHT22;11731;48.592;8.858;2022-08-20T13:11:58;24.80;97.20
23124;DHT22;11731;48.592;8.858;2022-08-20T13:14:25;25.10;96.70
23124;DHT22;11731;48.592;8.858;2022-08-20T13:16:55;25.50;96.50
23124;DHT22;11731;48.592;8.858;2022-08-20T13:19:23;25.40;95.90
23124;DHT22;11731;48.592;8.858;2022-08-20T13:21:50;25.50;95.70
23124;DHT22;11731;48.592;8.858;2022-08-20T13:24:17;26.00;95.50
23124;DHT22;11731;48.592;8.858;2022-08-20T13:26:44;26.10;94.30
23124;DHT22;11731;48.592;8.858;2022-08-20T13:29:13;25.90;94.80
23124;DHT22;11731;48.592;8.858;2022-08-20T13:31:41;25.60;94.80
23124;DHT22;11731;48.592;8.858;2022-08-20T13:34:08;25.20;95.80
23124;DHT22;11731;48.592;8.858;2022-08-20T13:36:35;25.20;95.80
23124;DHT22;11731;48.592;8.858;2022-08-20T13:39:03;25.40;95.50
23124;DHT22;11731;48.592;8.858;2022-08-20T13:41:31;25.70;94.80
23124;DHT22;11731;48.592;8.858;2022-08-20T13:43:57;25.40;95.00
23124;DHT22;11731;48.592;8.858;2022-08-20T13:46:26;25.30;94.90
23124;DHT22;11731;48.592;8.858;2022-08-20T13:48:53;25.30;95.10
23124;DHT22;11731;48.592;8.858;2022-08-20T13:51:20;25.70;94.80
23124;DHT22;11731;48.592;8.858;2022-08-20T13:53:46;25.40;94.80
23124;DHT22;11731;48.592;8.858;2022-08-20T13:56:13;25.00;95.50
23124;DHT22;11731;48.592;8.858;2022-08-20T13:58:40;25.20;94.70
23124;DHT22;11731;48.592;8.858;2022-08-20T14:01:07;25.10;94.20
23124;DHT22;11731;48.592;8.858;2022-08-20T14:03:35;25.20;93.90
23124;DHT22;11731;48.592;8.858;2022-08-20T14:06:03;25.30;94.20
23124;DHT22;11731;48.592;8.858;2022-08-20T14:08:30;25.70;93.30
23124;DHT22;11731;48.592;8.858;2022-08-20T14:10:57;25.70;93.10
23124;DHT22;11731;48.592;8.858;2022-08-20T14:13:25;26.10;92.50
23124;DHT22;11731;48.592;8.858;2022-08-20T14:15:52;26.30;92.00
23124;DHT22;11731;48.592;8.858;2022-08-20T14:18:20;25.80;92.30
23124;DHT22;11731;48.592;8.858;2022-08-20T14:20:48;25.30;93.00
23124;DHT22;11731;48.592;8.858;2022-08-20T14:23:15;25.60;93.00
23124;DHT22;11731;48.592;8.858;2022-08-20T14:25:45;25.80;92.30
23124;DHT22;11731;48.592;8.858;2022-08-20T14:28:14;26.00;92.30
23124;DHT22;11731;48.592;8.858;2022-08-20T14:30:41;26.30;91.80
23124;DHT22;11731;48.592;8.858;2022-08-20T14:33:08;26.70;90.90
23124;DHT22;11731;48.592;8.858;2022-08-20T14:35:35;27.00;90.20
23124;DHT22;11731;48.592;8.858;2022-08-20T14:38:03;26.70;90.20
23124;DHT22;11731;48.592;8.858;2022-08-20T14:40:30;26.80;90.50
23124;DHT22;11731;48.592;8.858;2022-08-20T14:42:57;26.10;90.90
23124;DHT22;11731;48.592;8.858;2022-08-20T14:45:24;25.60;91.50
23124;DHT22;11731;48.592;8.858;2022-08-20T14:47:54;25.80;91.50
23124;DHT22;11731;48.592;8.858;2022-08-20T14:50:23;26.20;90.90
23124;DHT22;11731;48.592;8.858;2022-08-20T14:52:51;26.10;91.20
23124;DHT22;11731;48.592;8.858;2022-08-20T14:55:21;26.00;91.20
23124;DHT22;11731;48.592;8.858;2022-08-20T14:57:49;25.80;91.80
23124;DHT22;11731;48.592;8.858;2022-08-20T15:00:19;26.00;91.60
23124;DHT22;11731;48.592;8.858;2022-08-20T15:02:46;26.10;91.20
23124;DHT22;11731;48.592;8.858;2022-08-20T15:05:13;26.10;91.30
23124;DHT22;11731;48.592;8.858;2022-08-20T15:07:43;26.10;91.60
23124;DHT22;11731;48.592;8.858;2022-08-20T15:10:13;26.30;90.80
23124;DHT22;11731;48.592;8.858;2022-08-20T15:12:41;26.60;90.80
23124;DHT22;11731;48.592;8.858;2022-08-20T15:15:10;26.40;90.50
23124;DHT22;11731;48.592;8.858;2022-08-20T15:17:40;26.20;90.90
23124;DHT22;11731;48.592;8.858;2022-08-20T15:20:09;26.30;90.70
23124;DHT22;11731;48.592;8.858;2022-08-20T15:22:37;25.80;90.50
23124;DHT22;11731;48.592;8.858;2022-08-20T15:25:04;25.90;90.40
23124;DHT22;11731;48.592;8.858;2022-08-20T15:27:31;26.60;89.60
23124;DHT22;11731;48.592;8.858;2022-08-20T15:30:03;26.70;88.70
23124;DHT22;11731;48.592;8.858;2022-08-20T15:32:31;26.20;89.50
23124;DHT22;11731;48.592;8.858;2022-08-20T15:34:58;25.80;90.20
23124;DHT22;11731;48.592;8.858;2022-08-20T15:37:25;25.70;89.20